sensor_id;sensor_type;location;lat;lon;timestamp;P1;durP1;ratioP1;P2;durP2;ratioP2
5722;SDS011;2886;49.722;8.612;2023-05-10T00:00:49;1.30;;;1.20;;
5722;SDS011;2886;49.722;8.612;2023-05-10T00:05:45;1.43;;;1.30;;
5722;SDS011;2886;49.722;8.612;2023-05-10T00:08:11;3.23;;;1.03;;
5722;SDS011;2886;49.722;8.612;2023-05-10T00:10:36;1.30;;;1.20;;
5722;SDS011;2886;49.722;8.612;2023-05-10T00:13:02;1.20;;;1.07;;
5722;SDS011;2886;49.722;8.612;2023-05-10T00:15:28;1.97;;;0.97;;
5722;SDS011;2886;49.722;8.612;2023-05-10T00:17:56;2.50;;;1.10;;
5722;SDS011;2886;49.722;8.612;2023-05-10T00:20:22;1.50;;;1.40;;
5722;SDS011;2886;49.722;8.612;2023-05-10T00:22:49;1.23;;;1.13;;
5722;SDS011;2886;49.722;8.612;2023-05-10T00:25:14;1.80;;;1.20;;
5722;SDS011;2886;49.722;8.612;2023-05-10T00:27:40;1.60;;;1.30;;
5722;SDS011;2886;49.722;8.612;2023-05-10T00:30:07;1.43;;;1.30;;
5722;SDS011;2886;49.722;8.612;2023-05-10T00:32:33;1.27;;;1.17;;
5722;SDS011;2886;49.722;8.612;2023-05-10T00:34:58;1.53;;;1.27;;
5722;SDS011;2886;49.722;8.612;2023-05-10T00:37:24;1.47;;;1.20;;
5722;SDS011;2886;49.722;8.612;2023-05-10T00:39:49;2.07;;;1.30;;
5722;SDS011;2886;49.722;8.612;2023-05-10T00:42:15;4.23;;;1.50;;
5722;SDS011;2886;49.722;8.612;2023-05-10T00:44:41;4.33;;;1.40;;
5722;SDS011;2886;49.722;8.612;2023-05-10T00:47:07;1.30;;;1.20;;
5722;SDS011;2886;49.722;8.612;2023-05-10T00:49:33;4.20;;;1.53;;
5722;SDS011;2886;49.722;8.612;2023-05-10T00:51:59;1.60;;;1.50;;
5722;SDS011;2886;49.722;8.612;2023-05-10T00:54:27;2.97;;;1.70;;
5722;SDS011;2886;49.722;8.612;2023-05-10T00:56:52;1.57;;;1.47;;
5722;SDS011;2886;49.722;8.612;2023-05-10T00:59:18;1.50;;;1.40;;
5722;SDS011;2886;49.722;8.612;2023-05-10T01:01:44;4.53;;;1.90;;
5722;SDS011;2886;49.722;8.612;2023-05-10T01:04:11;1.60;;;1.50;;
5722;SDS011;2886;49.722;8.612;2023-05-10T01:06:38;1.90;;;1.70;;
5722;SDS011;2886;49.722;8.612;2023-05-10T01:09:04;1.63;;;1.53;;
5722;SDS011;2886;49.722;8.612;2023-05-10T01:11:32;3.83;;;1.83;;
5722;SDS011;2886;49.722;8.612;2023-05-10T01:14:01;2.13;;;1.30;;
5722;SDS011;2886;49.722;8.612;2023-05-10T01:16:27;1.70;;;1.60;;
5722;SDS011;2886;49.722;8.612;2023-05-10T01:18:55;1.90;;;1.80;;
5722;SDS011;2886;49.722;8.612;2023-05-10T01:21:29;1.90;;;1.70;;
5722;SDS011;2886;49.722;8.612;2023-05-10T01:29:47;2.00;;;1.80;;
5722;SDS011;2886;49.722;8.612;2023-05-10T01:37:52;1.80;;;1.70;;
5722;SDS011;2886;49.722;8.612;2023-05-10T01:40:35;1.63;;;1.53;;
5722;SDS011;2886;49.722;8.612;2023-05-10T01:43:11;2.07;;;1.87;;
5722;SDS011;2886;49.722;8.612;2023-05-10T01:48:17;1.97;;;1.60;;
5722;SDS011;2886;49.722;8.612;2023-05-10T01:50:45;3.57;;;1.67;;
5722;SDS011;2886;49.722;8.612;2023-05-10T01:53:13;1.93;;;1.83;;
5722;SDS011;2886;49.722;8.612;2023-05-10T01:55:46;1.87;;;1.77;;
5722;SDS011;2886;49.722;8.612;2023-05-10T01:58:20;1.70;;;1.60;;
5722;SDS011;2886;49.722;8.612;2023-05-10T02:00:49;2.30;;;2.10;;
5722;SDS011;2886;49.722;8.612;2023-05-10T02:03:17;2.60;;;1.93;;
5722;SDS011;2886;49.722;8.612;2023-05-10T02:05:46;1.93;;;1.80;;
5722;SDS011;2886;49.722;8.612;2023-05-10T02:08:14;1.80;;;1.60;;
5722;SDS011;2886;49.722;8.612;2023-05-10T02:10:42;2.33;;;2.13;;
5722;SDS011;2886;49.722;8.612;2023-05-10T02:13:10;1.87;;;1.67;;
5722;SDS011;2886;49.722;8.612;2023-05-10T02:15:37;1.70;;;1.60;;
5722;SDS011;2886;49.722;8.612;2023-05-10T02:18:05;2.70;;;2.03;;
5722;SDS011;2886;49.722;8.612;2023-05-10T02:20:31;2.83;;;2.20;;
5722;SDS011;2886;49.722;8.612;2023-05-10T02:23:00;2.30;;;2.00;;
5722;SDS011;2886;49.722;8.612;2023-05-10T02:25:28;2.00;;;1.87;;
5722;SDS011;2886;49.722;8.612;2023-05-10T02:27:55;3.93;;;2.33;;
5722;SDS011;2886;49.722;8.612;2023-05-10T02:30:22;2.67;;;2.47;;
5722;SDS011;2886;49.722;8.612;2023-05-10T02:32:50;2.73;;;2.30;;
5722;SDS011;2886;49.722;8.612;2023-05-10T02:35:17;2.47;;;2.27;;
5722;SDS011;2886;49.722;8.612;2023-05-10T02:37:43;8.07;;;2.47;;
5722;SDS011;2886;49.722;8.612;2023-05-10T02:40:11;2.93;;;2.30;;
5722;SDS011;2886;49.722;8.612;2023-05-10T02:42:39;4.20;;;2.10;;
5722;SDS011;2886;49.722;8.612;2023-05-10T02:45:10;2.30;;;2.10;;
5722;SDS011;2886;49.722;8.612;2023-05-10T02:47:38;2.87;;;2.20;;
5722;SDS011;2886;49.722;8.612;2023-05-10T02:50:04;2.13;;;1.90;;
5722;SDS011;2886;49.722;8.612;2023-05-10T02:52:39;13.13;;;2.27;;
5722;SDS011;2886;49.722;8.612;2023-05-10T02:55:11;2.70;;;2.20;;
5722;SDS011;2886;49.722;8.612;2023-05-10T02:57:46;2.20;;;1.90;;
5722;SDS011;2886;49.722;8.612;2023-05-10T03:00:17;2.60;;;2.20;;
5722;SDS011;2886;49.722;8.612;2023-05-10T03:02:42;2.73;;;2.17;;
5722;SDS011;2886;49.722;8.612;2023-05-10T03:05:08;7.70;;;2.10;;
5722;SDS011;2886;49.722;8.612;2023-05-10T03:07:34;7.93;;;2.00;;
5722;SDS011;2886;49.722;8.612;2023-05-10T03:10:00;2.23;;;2.03;;
5722;SDS011;2886;49.722;8.612;2023-05-10T03:12:32;2.83;;;2.40;;
5722;SDS011;2886;49.722;8.612;2023-05-10T03:15:37;1.80;;;1.70;;
5722;SDS011;2886;49.722;8.612;2023-05-10T03:18:00;3.30;;;1.97;;
5722;SDS011;2886;49.722;8.612;2023-05-10T03:23:07;7.83;;;2.43;;
5722;SDS011;2886;49.722;8.612;2023-05-10T03:25:42;2.27;;;2.00;;
5722;SDS011;2886;49.722;8.612;2023-05-10T03:28:10;3.10;;;2.00;;
5722;SDS011;2886;49.722;8.612;2023-05-10T03:30:36;2.63;;;2.13;;
5722;SDS011;2886;49.722;8.612;2023-05-10T03:33:06;2.77;;;2.13;;
5722;SDS011;2886;49.722;8.612;2023-05-10T03:35:32;3.53;;;1.93;;
5722;SDS011;2886;49.722;8.612;2023-05-10T03:38:17;2.20;;;2.00;;
5722;SDS011;2886;49.722;8.612;2023-05-10T03:40:53;3.27;;;2.70;;
5722;SDS011;2886;49.722;8.612;2023-05-10T03:43:19;3.20;;;2.30;;
5722;SDS011;2886;49.722;8.612;2023-05-10T03:45:44;2.33;;;2.13;;
5722;SDS011;2886;49.722;8.612;2023-05-10T03:48:10;2.67;;;2.40;;
5722;SDS011;2886;49.722;8.612;2023-05-10T03:50:38;2.90;;;1.93;;
5722;SDS011;2886;49.722;8.612;2023-05-10T03:53:04;3.30;;;2.50;;
5722;SDS011;2886;49.722;8.612;2023-05-10T03:55:30;3.13;;;2.77;;
5722;SDS011;2886;49.722;8.612;2023-05-10T03:58:00;3.90;;;2.90;;
5722;SDS011;2886;49.722;8.612;2023-05-10T04:00:26;2.80;;;2.37;;
5722;SDS011;2886;49.722;8.612;2023-05-10T04:02:51;2.40;;;2.20;;
5722;SDS011;2886;49.722;8.612;2023-05-10T04:05:17;3.10;;;2.80;;
5722;SDS011;2886;49.722;8.612;2023-05-10T04:07:43;4.57;;;3.10;;
5722;SDS011;2886;49.722;8.612;2023-05-10T04:10:09;3.47;;;2.67;;
5722;SDS011;2886;49.722;8.612;2023-05-10T04:12:35;2.80;;;2.30;;
5722;SDS011;2886;49.722;8.612;2023-05-10T04:15:01;3.10;;;2.60;;
5722;SDS011;2886;49.722;8.612;2023-05-10T04:17:27;3.10;;;2.30;;
5722;SDS011;2886;49.722;8.612;2023-05-10T04:19:53;2.50;;;2.30;;
5722;SDS011;2886;49.722;8.612;2023-05-10T04:22:19;3.27;;;2.97;;
5722;SDS011;2886;49.722;8.612;2023-05-10T04:24:45;3.20;;;2.73;;
5722;SDS011;2886;49.722;8.612;2023-05-10T04:27:11;2.87;;;2.57;;
5722;SDS011;2886;49.722;8.612;2023-05-10T04:29:37;4.43;;;2.70;;
5722;SDS011;2886;49.722;8.612;2023-05-10T04:32:03;3.60;;;2.53;;
5722;SDS011;2886;49.722;8.612;2023-05-10T04:34:29;3.10;;;2.80;;
5722;SDS011;2886;49.722;8.612;2023-05-10T04:36:54;3.33;;;3.00;;
5722;SDS011;2886;49.722;8.612;2023-05-10T04:39:20;5.90;;;3.20;;
5722;SDS011;2886;49.722;8.612;2023-05-10T04:41:46;7.17;;;2.40;;
5722;SDS011;2886;49.722;8.612;2023-05-10T04:44:11;3.50;;;2.90;;
5722;SDS011;2886;49.722;8.612;2023-05-10T04:46:37;3.10;;;2.63;;
5722;SDS011;2886;49.722;8.612;2023-05-10T04:49:02;3.10;;;2.80;;
5722;SDS011;2886;49.722;8.612;2023-05-10T04:51:28;6.60;;;3.30;;
5722;SDS011;2886;49.722;8.612;2023-05-10T04:53:54;3.60;;;3.30;;
5722;SDS011;2886;49.722;8.612;2023-05-10T04:56:19;4.43;;;3.13;;
5722;SDS011;2886;49.722;8.612;2023-05-10T04:58:46;3.37;;;3.07;;
5722;SDS011;2886;49.722;8.612;2023-05-10T05:01:12;5.63;;;3.07;;
5722;SDS011;2886;49.722;8.612;2023-05-10T05:03:38;3.50;;;2.90;;
5722;SDS011;2886;49.722;8.612;2023-05-10T05:06:03;7.83;;;3.20;;
5722;SDS011;2886;49.722;8.612;2023-05-10T05:08:29;3.30;;;2.80;;
5722;SDS011;2886;49.722;8.612;2023-05-10T05:10:55;3.53;;;2.70;;
5722;SDS011;2886;49.722;8.612;2023-05-10T05:13:20;3.73;;;2.80;;
5722;SDS011;2886;49.722;8.612;2023-05-10T05:15:46;3.03;;;2.80;;
5722;SDS011;2886;49.722;8.612;2023-05-10T05:18:12;3.67;;;2.97;;
5722;SDS011;2886;49.722;8.612;2023-05-10T05:20:37;7.07;;;4.50;;
5722;SDS011;2886;49.722;8.612;2023-05-10T05:23:03;10.40;;;3.03;;
5722;SDS011;2886;49.722;8.612;2023-05-10T05:25:29;4.20;;;2.70;;
5722;SDS011;2886;49.722;8.612;2023-05-10T05:27:54;2.80;;;2.53;;
5722;SDS011;2886;49.722;8.612;2023-05-10T05:30:20;4.03;;;2.50;;
5722;SDS011;2886;49.722;8.612;2023-05-10T05:32:45;6.90;;;2.70;;
5722;SDS011;2886;49.722;8.612;2023-05-10T05:35:12;3.07;;;2.60;;
5722;SDS011;2886;49.722;8.612;2023-05-10T05:37:37;3.73;;;2.90;;
5722;SDS011;2886;49.722;8.612;2023-05-10T05:40:03;4.37;;;3.47;;
5722;SDS011;2886;49.722;8.612;2023-05-10T05:42:31;6.90;;;3.73;;
5722;SDS011;2886;49.722;8.612;2023-05-10T05:44:56;5.10;;;2.47;;
5722;SDS011;2886;49.722;8.612;2023-05-10T05:47:22;5.27;;;3.00;;
5722;SDS011;2886;49.722;8.612;2023-05-10T05:49:48;4.10;;;3.20;;
5722;SDS011;2886;49.722;8.612;2023-05-10T05:52:13;5.20;;;3.13;;
5722;SDS011;2886;49.722;8.612;2023-05-10T05:54:39;3.20;;;2.90;;
5722;SDS011;2886;49.722;8.612;2023-05-10T05:57:04;3.47;;;2.60;;
5722;SDS011;2886;49.722;8.612;2023-05-10T05:59:30;3.37;;;2.47;;
5722;SDS011;2886;49.722;8.612;2023-05-10T06:01:56;4.50;;;3.47;;
5722;SDS011;2886;49.722;8.612;2023-05-10T06:04:21;3.70;;;3.23;;
5722;SDS011;2886;49.722;8.612;2023-05-10T06:06:47;10.00;;;3.60;;
5722;SDS011;2886;49.722;8.612;2023-05-10T06:09:13;4.63;;;3.53;;
5722;SDS011;2886;49.722;8.612;2023-05-10T06:11:38;5.80;;;4.60;;
5722;SDS011;2886;49.722;8.612;2023-05-10T06:14:04;3.40;;;3.10;;
5722;SDS011;2886;49.722;8.612;2023-05-10T06:16:32;4.40;;;3.23;;
5722;SDS011;2886;49.722;8.612;2023-05-10T06:18:57;6.00;;;3.20;;
5722;SDS011;2886;49.722;8.612;2023-05-10T06:21:23;5.70;;;3.93;;
5722;SDS011;2886;49.722;8.612;2023-05-10T06:23:48;5.43;;;3.50;;
5722;SDS011;2886;49.722;8.612;2023-05-10T06:26:14;3.20;;;2.90;;
5722;SDS011;2886;49.722;8.612;2023-05-10T06:28:41;3.73;;;3.40;;
5722;SDS011;2886;49.722;8.612;2023-05-10T06:31:06;3.60;;;2.83;;
5722;SDS011;2886;49.722;8.612;2023-05-10T06:33:32;4.00;;;2.87;;
5722;SDS011;2886;49.722;8.612;2023-05-10T06:35:58;4.63;;;2.93;;
5722;SDS011;2886;49.722;8.612;2023-05-10T06:38:24;7.43;;;3.20;;
5722;SDS011;2886;49.722;8.612;2023-05-10T06:40:50;2.93;;;2.67;;
5722;SDS011;2886;49.722;8.612;2023-05-10T06:43:16;3.67;;;3.17;;
5722;SDS011;2886;49.722;8.612;2023-05-10T06:45:41;2.80;;;2.60;;
5722;SDS011;2886;49.722;8.612;2023-05-10T06:48:07;3.90;;;3.30;;
5722;SDS011;2886;49.722;8.612;2023-05-10T06:50:33;6.60;;;3.60;;
5722;SDS011;2886;49.722;8.612;2023-05-10T06:52:59;4.10;;;2.93;;
5722;SDS011;2886;49.722;8.612;2023-05-10T06:55:25;3.40;;;2.83;;
5722;SDS011;2886;49.722;8.612;2023-05-10T06:57:51;4.53;;;3.27;;
5722;SDS011;2886;49.722;8.612;2023-05-10T07:00:17;5.27;;;3.07;;
5722;SDS011;2886;49.722;8.612;2023-05-10T07:02:44;6.53;;;2.80;;
5722;SDS011;2886;49.722;8.612;2023-05-10T07:05:10;4.37;;;3.27;;
5722;SDS011;2886;49.722;8.612;2023-05-10T07:07:37;7.20;;;2.90;;
5722;SDS011;2886;49.722;8.612;2023-05-10T07:10:03;4.20;;;3.40;;
5722;SDS011;2886;49.722;8.612;2023-05-10T07:12:30;5.80;;;3.40;;
5722;SDS011;2886;49.722;8.612;2023-05-10T07:14:56;8.30;;;2.90;;
5722;SDS011;2886;49.722;8.612;2023-05-10T07:17:21;4.63;;;2.63;;
5722;SDS011;2886;49.722;8.612;2023-05-10T07:19:47;4.03;;;2.80;;
5722;SDS011;2886;49.722;8.612;2023-05-10T07:22:13;2.83;;;2.57;;
5722;SDS011;2886;49.722;8.612;2023-05-10T07:24:39;2.63;;;2.07;;
5722;SDS011;2886;49.722;8.612;2023-05-10T07:27:05;3.93;;;3.03;;
5722;SDS011;2886;49.722;8.612;2023-05-10T07:29:31;4.30;;;3.00;;
5722;SDS011;2886;49.722;8.612;2023-05-10T07:31:57;5.23;;;2.80;;
5722;SDS011;2886;49.722;8.612;2023-05-10T07:34:23;5.30;;;3.03;;
5722;SDS011;2886;49.722;8.612;2023-05-10T07:36:48;7.70;;;3.17;;
5722;SDS011;2886;49.722;8.612;2023-05-10T07:39:14;6.43;;;2.80;;
5722;SDS011;2886;49.722;8.612;2023-05-10T07:41:39;3.13;;;2.83;;
5722;SDS011;2886;49.722;8.612;2023-05-10T07:44:05;5.83;;;2.83;;
5722;SDS011;2886;49.722;8.612;2023-05-10T07:46:31;3.17;;;2.87;;
5722;SDS011;2886;49.722;8.612;2023-05-10T07:48:57;4.20;;;3.07;;
5722;SDS011;2886;49.722;8.612;2023-05-10T07:51:22;5.07;;;3.27;;
5722;SDS011;2886;49.722;8.612;2023-05-10T07:53:48;4.83;;;3.60;;
5722;SDS011;2886;49.722;8.612;2023-05-10T07:56:21;6.30;;;3.77;;
5722;SDS011;2886;49.722;8.612;2023-05-10T07:58:52;4.23;;;3.07;;
5722;SDS011;2886;49.722;8.612;2023-05-10T08:01:19;4.07;;;3.10;;
5722;SDS011;2886;49.722;8.612;2023-05-10T08:03:44;4.80;;;3.13;;
5722;SDS011;2886;49.722;8.612;2023-05-10T08:06:10;3.50;;;2.93;;
5722;SDS011;2886;49.722;8.612;2023-05-10T08:08:36;4.43;;;3.43;;
5722;SDS011;2886;49.722;8.612;2023-05-10T08:11:01;4.33;;;3.20;;
5722;SDS011;2886;49.722;8.612;2023-05-10T08:13:28;3.33;;;3.03;;
5722;SDS011;2886;49.722;8.612;2023-05-10T08:15:54;2.70;;;2.50;;
5722;SDS011;2886;49.722;8.612;2023-05-10T08:18:20;3.90;;;2.93;;
5722;SDS011;2886;49.722;8.612;2023-05-10T08:20:45;4.20;;;2.93;;
5722;SDS011;2886;49.722;8.612;2023-05-10T08:23:14;3.60;;;2.63;;
5722;SDS011;2886;49.722;8.612;2023-05-10T08:25:40;3.80;;;2.20;;
5722;SDS011;2886;49.722;8.612;2023-05-10T08:28:06;4.27;;;2.03;;
5722;SDS011;2886;49.722;8.612;2023-05-10T08:30:32;2.10;;;1.90;;
5722;SDS011;2886;49.722;8.612;2023-05-10T08:32:57;6.73;;;2.30;;
5722;SDS011;2886;49.722;8.612;2023-05-10T08:35:23;2.00;;;1.90;;
5722;SDS011;2886;49.722;8.612;2023-05-10T08:37:49;2.10;;;1.90;;
5722;SDS011;2886;49.722;8.612;2023-05-10T08:40:15;1.90;;;1.80;;
5722;SDS011;2886;49.722;8.612;2023-05-10T08:42:45;1.90;;;1.60;;
5722;SDS011;2886;49.722;8.612;2023-05-10T08:45:16;2.03;;;1.40;;
5722;SDS011;2886;49.722;8.612;2023-05-10T08:47:44;8.70;;;1.80;;
5722;SDS011;2886;49.722;8.612;2023-05-10T08:50:10;2.30;;;1.57;;
5722;SDS011;2886;49.722;8.612;2023-05-10T08:52:37;1.50;;;1.40;;
5722;SDS011;2886;49.722;8.612;2023-05-10T08:55:05;1.30;;;1.20;;
5722;SDS011;2886;49.722;8.612;2023-05-10T08:57:31;1.37;;;1.27;;
5722;SDS011;2886;49.722;8.612;2023-05-10T08:59:56;2.70;;;1.10;;
5722;SDS011;2886;49.722;8.612;2023-05-10T09:02:23;2.17;;;1.37;;
5722;SDS011;2886;49.722;8.612;2023-05-10T09:04:49;1.40;;;1.30;;
5722;SDS011;2886;49.722;8.612;2023-05-10T09:07:14;2.83;;;1.30;;
5722;SDS011;2886;49.722;8.612;2023-05-10T09:09:40;2.77;;;1.23;;
5722;SDS011;2886;49.722;8.612;2023-05-10T09:12:07;1.27;;;1.13;;
5722;SDS011;2886;49.722;8.612;2023-05-10T09:14:36;2.00;;;1.40;;
5722;SDS011;2886;49.722;8.612;2023-05-10T09:17:02;1.63;;;1.40;;
5722;SDS011;2886;49.722;8.612;2023-05-10T09:19:29;1.40;;;1.30;;
5722;SDS011;2886;49.722;8.612;2023-05-10T09:21:54;1.20;;;1.10;;
5722;SDS011;2886;49.722;8.612;2023-05-10T09:24:24;1.20;;;1.10;;
5722;SDS011;2886;49.722;8.612;2023-05-10T09:26:52;2.23;;;1.43;;
5722;SDS011;2886;49.722;8.612;2023-05-10T09:29:17;1.13;;;1.03;;
5722;SDS011;2886;49.722;8.612;2023-05-10T09:31:47;2.47;;;1.90;;
5722;SDS011;2886;49.722;8.612;2023-05-10T09:34:20;2.03;;;1.30;;
5722;SDS011;2886;49.722;8.612;2023-05-10T09:36:54;3.20;;;1.17;;
5722;SDS011;2886;49.722;8.612;2023-05-10T09:39:29;1.20;;;1.10;;
5722;SDS011;2886;49.722;8.612;2023-05-10T09:42:02;1.10;;;1.00;;
5722;SDS011;2886;49.722;8.612;2023-05-10T09:44:30;2.57;;;1.10;;
5722;SDS011;2886;49.722;8.612;2023-05-10T09:46:56;1.23;;;1.10;;
5722;SDS011;2886;49.722;8.612;2023-05-10T09:49:22;1.30;;;0.97;;
5722;SDS011;2886;49.722;8.612;2023-05-10T09:51:57;3.53;;;1.10;;
5722;SDS011;2886;49.722;8.612;2023-05-10T09:54:27;1.77;;;1.23;;
5722;SDS011;2886;49.722;8.612;2023-05-10T09:56:53;1.93;;;1.00;;
5722;SDS011;2886;49.722;8.612;2023-05-10T09:59:18;1.90;;;1.30;;
5722;SDS011;2886;49.722;8.612;2023-05-10T10:01:49;1.67;;;1.20;;
5722;SDS011;2886;49.722;8.612;2023-05-10T10:04:16;1.53;;;1.10;;
5722;SDS011;2886;49.722;8.612;2023-05-10T10:06:42;1.20;;;0.93;;
5722;SDS011;2886;49.722;8.612;2023-05-10T10:09:08;1.00;;;0.90;;
5722;SDS011;2886;49.722;8.612;2023-05-10T10:11:34;1.00;;;0.90;;
5722;SDS011;2886;49.722;8.612;2023-05-10T10:14:01;3.90;;;1.20;;
5722;SDS011;2886;49.722;8.612;2023-05-10T10:16:30;1.10;;;1.00;;
5722;SDS011;2886;49.722;8.612;2023-05-10T10:18:56;1.10;;;1.00;;
5722;SDS011;2886;49.722;8.612;2023-05-10T10:21:22;2.03;;;1.30;;
5722;SDS011;2886;49.722;8.612;2023-05-10T10:23:48;2.50;;;1.20;;
5722;SDS011;2886;49.722;8.612;2023-05-10T10:26:14;1.37;;;1.23;;
5722;SDS011;2886;49.722;8.612;2023-05-10T10:28:48;1.47;;;1.37;;
5722;SDS011;2886;49.722;8.612;2023-05-10T10:34:08;1.60;;;1.30;;
5722;SDS011;2886;49.722;8.612;2023-05-10T10:36:43;1.73;;;1.63;;
5722;SDS011;2886;49.722;8.612;2023-05-10T10:39:11;1.70;;;1.50;;
5722;SDS011;2886;49.722;8.612;2023-05-10T10:41:38;2.20;;;1.50;;
5722;SDS011;2886;49.722;8.612;2023-05-10T10:47:03;1.60;;;1.50;;
5722;SDS011;2886;49.722;8.612;2023-05-10T10:49:50;1.30;;;1.20;;
5722;SDS011;2886;49.722;8.612;2023-05-10T10:52:27;3.53;;;1.60;;
5722;SDS011;2886;49.722;8.612;2023-05-10T10:55:11;1.40;;;1.30;;
5722;SDS011;2886;49.722;8.612;2023-05-10T10:57:53;6.20;;;1.60;;
5722;SDS011;2886;49.722;8.612;2023-05-10T11:00:30;1.90;;;1.43;;
5722;SDS011;2886;49.722;8.612;2023-05-10T11:03:08;1.67;;;1.57;;
5722;SDS011;2886;49.722;8.612;2023-05-10T11:05:39;2.33;;;1.27;;
5722;SDS011;2886;49.722;8.612;2023-05-10T11:10:38;1.43;;;1.33;;
5722;SDS011;2886;49.722;8.612;2023-05-10T11:13:06;1.37;;;1.20;;
5722;SDS011;2886;49.722;8.612;2023-05-10T11:15:37;2.27;;;1.50;;
5722;SDS011;2886;49.722;8.612;2023-05-10T11:21:06;1.30;;;1.20;;
5722;SDS011;2886;49.722;8.612;2023-05-10T11:26:22;1.57;;;1.03;;
5722;SDS011;2886;49.722;8.612;2023-05-10T11:28:51;1.77;;;1.07;;
5722;SDS011;2886;49.722;8.612;2023-05-10T11:31:19;1.73;;;1.17;;
5722;SDS011;2886;49.722;8.612;2023-05-10T11:33:46;2.40;;;1.03;;
5722;SDS011;2886;49.722;8.612;2023-05-10T11:36:19;3.43;;;1.20;;
5722;SDS011;2886;49.722;8.612;2023-05-10T11:38:47;1.40;;;1.13;;
5722;SDS011;2886;49.722;8.612;2023-05-10T11:41:16;1.57;;;1.07;;
5722;SDS011;2886;49.722;8.612;2023-05-10T11:43:43;5.60;;;1.40;;
5722;SDS011;2886;49.722;8.612;2023-05-10T11:46:12;2.97;;;1.50;;
5722;SDS011;2886;49.722;8.612;2023-05-10T11:48:38;2.13;;;1.27;;
5722;SDS011;2886;49.722;8.612;2023-05-10T11:51:05;1.93;;;1.33;;
5722;SDS011;2886;49.722;8.612;2023-05-10T11:53:32;1.30;;;1.20;;
5722;SDS011;2886;49.722;8.612;2023-05-10T11:56:05;1.37;;;1.27;;
5722;SDS011;2886;49.722;8.612;2023-05-10T11:58:31;1.30;;;1.20;;
5722;SDS011;2886;49.722;8.612;2023-05-10T12:01:01;1.37;;;1.23;;
5722;SDS011;2886;49.722;8.612;2023-05-10T12:03:27;1.77;;;1.30;;
5722;SDS011;2886;49.722;8.612;2023-05-10T12:05:54;1.20;;;1.10;;
5722;SDS011;2886;49.722;8.612;2023-05-10T12:08:22;1.57;;;1.07;;
5722;SDS011;2886;49.722;8.612;2023-05-10T12:10:51;2.00;;;1.53;;
5722;SDS011;2886;49.722;8.612;2023-05-10T12:13:18;1.40;;;1.00;;
5722;SDS011;2886;49.722;8.612;2023-05-10T12:15:46;2.93;;;1.60;;
5722;SDS011;2886;49.722;8.612;2023-05-10T12:18:12;4.10;;;1.10;;
5722;SDS011;2886;49.722;8.612;2023-05-10T12:20:38;2.70;;;1.37;;
5722;SDS011;2886;49.722;8.612;2023-05-10T12:23:05;3.77;;;1.23;;
5722;SDS011;2886;49.722;8.612;2023-05-10T12:25:33;1.10;;;1.00;;
5722;SDS011;2886;49.722;8.612;2023-05-10T12:28:03;1.30;;;1.10;;
5722;SDS011;2886;49.722;8.612;2023-05-10T12:30:30;1.70;;;1.40;;
5722;SDS011;2886;49.722;8.612;2023-05-10T12:33:01;2.90;;;1.20;;
5722;SDS011;2886;49.722;8.612;2023-05-10T12:35:47;1.63;;;1.20;;
5722;SDS011;2886;49.722;8.612;2023-05-10T12:41:03;3.20;;;1.30;;
5722;SDS011;2886;49.722;8.612;2023-05-10T12:43:30;1.17;;;0.90;;
5722;SDS011;2886;49.722;8.612;2023-05-10T12:45:56;1.47;;;1.20;;
5722;SDS011;2886;49.722;8.612;2023-05-10T12:48:22;1.30;;;1.20;;
5722;SDS011;2886;49.722;8.612;2023-05-10T12:50:48;1.67;;;1.20;;
5722;SDS011;2886;49.722;8.612;2023-05-10T12:53:14;2.50;;;1.43;;
5722;SDS011;2886;49.722;8.612;2023-05-10T12:55:43;6.73;;;1.90;;
5722;SDS011;2886;49.722;8.612;2023-05-10T12:58:09;3.90;;;1.37;;
5722;SDS011;2886;49.722;8.612;2023-05-10T13:00:35;1.50;;;1.40;;
5722;SDS011;2886;49.722;8.612;2023-05-10T13:03:03;7.80;;;2.20;;
5722;SDS011;2886;49.722;8.612;2023-05-10T13:05:30;4.00;;;1.30;;
5722;SDS011;2886;49.722;8.612;2023-05-10T13:07:56;1.97;;;1.43;;
5722;SDS011;2886;49.722;8.612;2023-05-10T13:10:21;2.53;;;1.37;;
5722;SDS011;2886;49.722;8.612;2023-05-10T13:12:48;1.83;;;1.30;;
5722;SDS011;2886;49.722;8.612;2023-05-10T13:15:14;1.93;;;1.43;;
5722;SDS011;2886;49.722;8.612;2023-05-10T13:17:39;3.97;;;1.33;;
5722;SDS011;2886;49.722;8.612;2023-05-10T13:20:07;3.10;;;1.23;;
5722;SDS011;2886;49.722;8.612;2023-05-10T13:22:34;2.70;;;1.37;;
5722;SDS011;2886;49.722;8.612;2023-05-10T13:25:00;3.17;;;1.47;;
5722;SDS011;2886;49.722;8.612;2023-05-10T13:27:26;3.03;;;1.50;;
5722;SDS011;2886;49.722;8.612;2023-05-10T13:29:51;2.90;;;1.20;;
5722;SDS011;2886;49.722;8.612;2023-05-10T13:32:17;3.37;;;1.20;;
5722;SDS011;2886;49.722;8.612;2023-05-10T13:34:43;5.27;;;1.20;;
5722;SDS011;2886;49.722;8.612;2023-05-10T13:37:09;2.90;;;1.33;;
5722;SDS011;2886;49.722;8.612;2023-05-10T13:39:34;2.80;;;1.00;;
5722;SDS011;2886;49.722;8.612;2023-05-10T13:42:02;4.53;;;1.30;;
5722;SDS011;2886;49.722;8.612;2023-05-10T13:44:28;1.20;;;1.07;;
5722;SDS011;2886;49.722;8.612;2023-05-10T13:46:54;4.33;;;1.10;;
5722;SDS011;2886;49.722;8.612;2023-05-10T13:49:20;1.13;;;1.03;;
5722;SDS011;2886;49.722;8.612;2023-05-10T13:51:46;4.00;;;1.10;;
5722;SDS011;2886;49.722;8.612;2023-05-10T13:54:12;2.00;;;1.10;;
5722;SDS011;2886;49.722;8.612;2023-05-10T13:56:38;3.07;;;1.30;;
5722;SDS011;2886;49.722;8.612;2023-05-10T13:59:05;4.97;;;1.30;;
5722;SDS011;2886;49.722;8.612;2023-05-10T14:01:31;4.00;;;1.63;;
5722;SDS011;2886;49.722;8.612;2023-05-10T14:03:57;1.33;;;1.10;;
5722;SDS011;2886;49.722;8.612;2023-05-10T14:06:22;1.93;;;1.23;;
5722;SDS011;2886;49.722;8.612;2023-05-10T14:08:48;3.63;;;1.50;;
5722;SDS011;2886;49.722;8.612;2023-05-10T14:11:13;1.83;;;1.30;;
5722;SDS011;2886;49.722;8.612;2023-05-10T14:13:39;1.73;;;1.30;;
5722;SDS011;2886;49.722;8.612;2023-05-10T14:16:05;2.83;;;1.30;;
5722;SDS011;2886;49.722;8.612;2023-05-10T14:18:31;5.00;;;1.60;;
5722;SDS011;2886;49.722;8.612;2023-05-10T14:20:56;2.53;;;1.20;;
5722;SDS011;2886;49.722;8.612;2023-05-10T14:23:22;3.53;;;2.00;;
5722;SDS011;2886;49.722;8.612;2023-05-10T14:25:54;1.30;;;1.10;;
5722;SDS011;2886;49.722;8.612;2023-05-10T14:28:20;1.63;;;1.37;;
5722;SDS011;2886;49.722;8.612;2023-05-10T14:30:46;1.40;;;1.30;;
5722;SDS011;2886;49.722;8.612;2023-05-10T14:33:12;3.13;;;1.30;;
5722;SDS011;2886;49.722;8.612;2023-05-10T14:35:38;1.67;;;1.40;;
5722;SDS011;2886;49.722;8.612;2023-05-10T14:38:04;4.23;;;1.83;;
5722;SDS011;2886;49.722;8.612;2023-05-10T14:40:29;2.80;;;1.30;;
5722;SDS011;2886;49.722;8.612;2023-05-10T14:42:55;5.70;;;1.80;;
5722;SDS011;2886;49.722;8.612;2023-05-10T14:45:21;2.50;;;1.23;;
5722;SDS011;2886;49.722;8.612;2023-05-10T14:47:47;5.77;;;1.87;;
5722;SDS011;2886;49.722;8.612;2023-05-10T14:50:13;1.23;;;1.10;;
5722;SDS011;2886;49.722;8.612;2023-05-10T14:52:39;1.83;;;1.10;;
5722;SDS011;2886;49.722;8.612;2023-05-10T14:55:04;4.53;;;1.40;;
5722;SDS011;2886;49.722;8.612;2023-05-10T14:57:30;1.63;;;1.03;;
5722;SDS011;2886;49.722;8.612;2023-05-10T14:59:57;3.37;;;1.20;;
5722;SDS011;2886;49.722;8.612;2023-05-10T15:02:22;3.30;;;1.30;;
5722;SDS011;2886;49.722;8.612;2023-05-10T15:04:48;5.90;;;1.40;;
5722;SDS011;2886;49.722;8.612;2023-05-10T15:07:14;1.00;;;0.90;;
5722;SDS011;2886;49.722;8.612;2023-05-10T15:09:42;1.33;;;1.10;;
5722;SDS011;2886;49.722;8.612;2023-05-10T15:12:07;2.13;;;1.93;;
5722;SDS011;2886;49.722;8.612;2023-05-10T15:14:33;1.40;;;1.10;;
5722;SDS011;2886;49.722;8.612;2023-05-10T15:17:01;1.93;;;1.40;;
5722;SDS011;2886;49.722;8.612;2023-05-10T15:19:27;7.23;;;1.50;;
5722;SDS011;2886;49.722;8.612;2023-05-10T15:21:54;2.50;;;2.00;;
5722;SDS011;2886;49.722;8.612;2023-05-10T15:24:20;1.37;;;1.27;;
5722;SDS011;2886;49.722;8.612;2023-05-10T15:26:46;1.10;;;0.90;;
5722;SDS011;2886;49.722;8.612;2023-05-10T15:31:49;3.50;;;1.10;;
5722;SDS011;2886;49.722;8.612;2023-05-10T15:34:16;2.00;;;1.20;;
5722;SDS011;2886;49.722;8.612;2023-05-10T15:36:42;1.30;;;1.20;;
5722;SDS011;2886;49.722;8.612;2023-05-10T15:39:09;1.40;;;1.20;;
5722;SDS011;2886;49.722;8.612;2023-05-10T15:41:35;2.00;;;0.90;;
5722;SDS011;2886;49.722;8.612;2023-05-10T15:44:01;6.43;;;1.10;;
5722;SDS011;2886;49.722;8.612;2023-05-10T15:46:27;2.80;;;1.03;;
5722;SDS011;2886;49.722;8.612;2023-05-10T15:48:53;2.33;;;1.07;;
5722;SDS011;2886;49.722;8.612;2023-05-10T15:51:19;1.10;;;1.00;;
5722;SDS011;2886;49.722;8.612;2023-05-10T15:53:45;2.17;;;1.17;;